Time;durP1;ratioP1;P1;durP2;ratioP2;P2;SDS_P1;SDS_P2;PMS_P1;PMS_P2;Temp;Humidity;BMP_temperature;BMP_pressure;BME280_temperature;BME280_humidity;BME280_pressure;Samples;Min_cycle;Max_cycle;Signal;HPM_P1;HPM_P2
2022/01/30 00:04:40;;;;;;;4.30;3.20;;;;;;;8.11;100.00;98329.13;15284229;19;20159;-53
2022/01/30 00:09:45;;;;;;;3.43;3.13;;;;;;;7.99;100.00;98340.78;15283573;19;20155;-54
2022/01/30 00:20:40;;;;;;;5.80;2.30;;;;;;;19.14;100.00;98465.44;14701977;18;2905288;-54
2022/01/30 00:25:49;;;;;;;26.17;5.43;;;;;;;10.71;100.00;98446.63;15316948;19;20167;-52
2022/01/30 00:30:57;;;;;;;4.57;1.30;;;;;;;7.27;100.00;98421.09;15338962;19;20173;-52
2022/01/30 00:36:01;;;;;;;5.00;1.83;;;;;;;6.40;100.00;98459.00;15337863;19;20144;-52
2022/01/30 00:41:06;;;;;;;5.97;1.40;;;;;;;6.22;100.00;98396.81;15319566;19;20180;-53
2022/01/30 00:46:16;;;;;;;3.00;1.13;;;;;;;6.06;100.00;98421.81;15310681;19;20208;-52
2022/01/30 00:51:21;;;;;;;5.30;1.30;;;;;;;6.06;100.00;98408.59;15339564;19;20150;-52
2022/01/30 00:56:25;;;;;;;4.03;1.10;;;;;;;6.09;100.00;98466.59;15338646;19;20145;-52
2022/01/30 01:01:32;;;;;;;6.70;1.87;;;;;;;6.07;100.00;98443.84;15334936;19;20591;-52
2022/01/30 01:06:38;;;;;;;5.27;1.40;;;;;;;5.92;100.00;98458.22;15302619;19;20235;-52
2022/01/30 01:27:34;;;;;;;8.40;2.43;;;;;;;5.52;100.00;98460.31;15291446;19;20610;-52
2022/01/30 01:32:38;;;;;;;8.73;2.17;;;;;;;5.40;100.00;98464.72;15263570;19;20155;-52
2022/01/30 01:37:43;;;;;;;6.80;2.37;;;;;;;5.51;100.00;98396.00;15278289;19;20152;-52
2022/01/30 01:42:47;;;;;;;11.10;2.00;;;;;;;5.60;100.00;98431.50;15277841;19;20520;-53
2022/01/30 01:47:52;;;;;;;7.87;2.40;;;;;;;5.62;100.00;98466.63;15263071;19;20162;-52
2022/01/30 01:52:57;;;;;;;6.77;1.80;;;;;;;5.64;100.00;98456.78;15253055;19;20151;-52
2022/01/30 01:58:01;;;;;;;9.83;3.47;;;;;;;5.56;100.00;98454.69;15276439;19;20141;-53
2022/01/30 02:03:38;;;;;;;11.70;4.77;;;;;;;5.51;100.00;98463.94;15276760;19;20137;-53
2022/01/30 02:08:46;;;;;;;7.63;2.80;;;;;;;5.51;100.00;98401.28;15271826;19;20256;-53
2022/01/30 02:14:16;;;;;;;9.63;2.20;;;;;;;5.55;100.00;98433.66;15248351;19;20153;-53
2022/01/30 02:24:46;;;;;;;6.50;2.10;;;;;;;5.48;100.00;98406.78;15276532;19;20220;-53
2022/01/30 02:34:48;;;;;;;13.60;3.27;;;;;;;5.55;100.00;98391.34;15310093;19;20464;-53
2022/01/30 02:39:52;;;;;;;9.83;2.37;;;;;;;5.62;100.00;98397.84;15328057;19;20496;-52
2022/01/30 02:55:17;;;;;;;8.90;2.80;;;;;;;5.52;100.00;98386.25;15325660;19;20195;-52
2022/01/30 03:00:22;;;;;;;12.30;2.90;;;;;;;5.25;100.00;98358.25;15316619;19;20646;-52
2022/01/30 03:05:27;;;;;;;8.83;2.63;;;;;;;5.02;100.00;98377.59;15344325;19;20184;-53
2022/01/30 03:10:32;;;;;;;9.03;2.73;;;;;;;3.55;100.00;98441.53;15342328;19;20148;-52
2022/01/30 03:15:37;;;;;;;13.13;2.50;;;;;;;10.56;100.00;98533.38;15338649;19;20160;-51
2022/01/30 03:25:39;;;;;;;151.90;16.00;;;;;;;21.50;100.00;98433.56;15330230;19;20466;-51
2022/01/30 03:31:01;;;;;;;309.17;32.93;;;;;;;13.66;100.00;98411.28;15342555;19;20141;-51
2022/01/30 03:36:16;;;;;;;10.70;2.60;;;;;;;4.13;100.00;98366.34;15343041;19;20601;-51
2022/01/30 03:46:21;;;;;;;12.60;2.83;;;;;;;4.45;100.00;98341.22;15321795;19;20464;-52
2022/01/30 03:51:45;;;;;;;20.03;3.03;;;;;;;5.63;100.00;98328.94;15342395;19;20150;-51
2022/01/30 03:56:58;;;;;;;19.80;3.77;;;;;;;4.34;100.00;98322.66;15341972;19;20150;-51
2022/01/30 04:02:06;;;;;;;18.33;3.70;;;;;;;4.13;100.00;98313.56;15325124;19;20146;-51
2022/01/30 04:12:05;;;;;;;18.07;3.73;;;;;;;3.07;100.00;98300.63;15186757;19;2939613;-51
2022/01/30 04:17:25;;;;;;;20.77;3.93;;;;;;;2.85;100.00;98235.38;15343708;19;20158;-52
2022/01/30 04:27:49;;;;;;;18.83;3.70;;;;;;;3.32;100.00;98274.34;15308150;19;20467;-51
2022/01/30 04:33:26;;;;;;;17.00;3.40;;;;;;;3.42;100.00;98269.28;15336263;19;20599;-51
2022/01/30 04:39:01;;;;;;;21.10;3.90;;;;;;;3.58;100.00;98243.56;15342433;19;20149;-51
2022/01/30 05:01:15;;;;;;;17.03;3.47;;;;;;;3.73;100.00;98195.03;15339704;19;20456;-51
2022/01/30 05:06:52;;;;;;;17.43;3.97;;;;;;;3.60;100.00;98184.50;15336517;19;20637;-51
2022/01/30 05:12:16;;;;;;;18.70;3.40;;;;;;;3.52;100.00;98164.88;15309473;19;20151;-51
2022/01/30 05:22:36;;;;;;;16.47;2.80;;;;;;;3.17;100.00;98191.03;15340439;19;20461;-51
2022/01/30 05:28:06;;;;;;;18.43;3.30;;;;;;;2.84;100.00;98166.03;15342296;19;21057;-51
2022/01/30 05:33:31;;;;;;;16.53;2.47;;;;;;;2.71;100.00;98198.56;15313504;19;20162;-52
2022/01/30 05:43:58;;;;;;;10.83;2.60;;;;;;;2.72;100.00;98184.44;15338921;19;20453;-51
2022/01/30 05:49:20;;;;;;;17.40;3.00;;;;;;;2.71;100.00;98188.03;15342352;19;20138;-51
2022/01/30 05:54:45;;;;;;;14.37;3.00;;;;;;;2.77;100.00;98203.44;15322512;19;20140;-51
2022/01/30 05:59:49;;;;;;;14.30;3.20;;;;;;;2.78;100.00;98195.41;15314352;19;20183;-51
2022/01/30 06:05:01;;;;;;;15.53;3.00;;;;;;;2.77;100.00;98182.38;15341348;19;20163;-51
2022/01/30 06:10:06;;;;;;;17.93;3.20;;;;;;;2.81;100.00;98178.56;15343306;19;20147;-51
2022/01/30 06:15:11;;;;;;;13.93;3.10;;;;;;;2.77;100.00;98198.16;15332965;19;20187;-50
2022/01/30 06:20:16;;;;;;;14.87;2.70;;;;;;;2.79;100.00;98164.66;15306675;19;20435;-51
2022/01/30 06:25:58;;;;;;;12.73;2.43;;;;;;;2.65;100.00;98231.41;15337760;19;20164;-51
2022/01/30 06:31:23;;;;;;;15.67;3.07;;;;;;;2.59;100.00;98208.13;15341960;19;20179;-51
2022/01/30 06:36:46;;;;;;;15.63;3.00;;;;;;;2.60;100.00;98206.31;15337412;19;20191;-50
2022/01/30 06:42:07;;;;;;;9.70;2.87;;;;;;;2.59;100.00;98188.84;15303570;19;20178;-50
2022/01/30 06:47:30;;;;;;;9.30;2.50;;;;;;;2.55;100.00;98185.56;15329716;19;20165;-50
2022/01/30 06:52:54;;;;;;;9.23;2.23;;;;;;;2.78;100.00;98194.56;15299273;19;20797;-51
2022/01/30 06:58:30;;;;;;;9.87;2.60;;;;;;;2.93;100.00;98205.88;15271355;19;20155;-50
2022/01/30 07:03:53;;;;;;;13.33;2.77;;;;;;;2.98;100.00;98174.81;15234176;19;20624;-51
2022/01/30 07:09:03;;;;;;;12.87;2.60;;;;;;;3.00;100.00;98163.22;15258276;19;20164;-51
2022/01/30 07:14:08;;;;;;;8.90;2.10;;;;;;;3.01;100.00;98128.03;15268792;19;20914;-51
2022/01/30 07:19:12;;;;;;;10.30;2.70;;;;;;;3.06;100.00;98152.25;15269639;19;20208;-51
2022/01/30 07:24:17;;;;;;;15.73;2.93;;;;;;;3.04;100.00;98169.94;15253244;19;20144;-50
2022/01/30 07:29:22;;;;;;;9.93;2.50;;;;;;;2.86;100.00;98163.31;15249448;19;20616;-52
2022/01/30 07:34:26;;;;;;;9.67;2.10;;;;;;;2.69;100.00;98200.44;15271657;19;20196;-51
2022/01/30 07:39:31;;;;;;;9.00;2.87;;;;;;;1.96;100.00;98163.97;15268379;19;20725;-51
2022/01/30 07:44:36;;;;;;;10.13;3.07;;;;;;;1.40;100.00;98172.78;15263785;19;20154;-50
2022/01/30 07:49:40;;;;;;;9.67;3.17;;;;;;;1.38;100.00;98145.75;15238712;19;20519;-50
2022/01/30 07:54:45;;;;;;;10.80;2.83;;;;;;;1.43;100.00;98164.72;15264046;19;20161;-50
2022/01/30 07:59:49;;;;;;;5.07;2.37;;;;;;;1.47;100.00;98160.94;15269362;19;20143;-51
2022/01/30 08:04:55;;;;;;;4.40;2.73;;;;;;;1.51;100.00;98167.72;15272881;19;20145;-53
2022/01/30 08:14:54;;;;;;;3.30;2.00;;;;;;;1.31;100.00;98208.34;15324277;19;20481;-50
2022/01/30 08:29:51;;;;;;;5.43;1.53;;;;;;;1.33;100.00;98180.19;15328660;19;20478;-51
2022/01/30 08:34:57;;;;;;;3.77;1.40;;;;;;;1.21;100.00;98248.41;15313690;19;20156;-51
2022/01/30 08:40:01;;;;;;;4.87;0.90;;;;;;;0.51;100.00;98305.81;15337712;19;20172;-51
2022/01/30 08:45:08;;;;;;;7.83;1.40;;;;;;;0.46;100.00;98229.16;15345797;19;20169;-52
2022/01/30 08:50:17;;;;;;;2.33;1.23;;;;;;;0.63;100.00;98215.03;15344691;19;20145;-50
2022/01/30 08:55:21;;;;;;;3.70;1.43;;;;;;;0.59;100.00;98224.03;15318458;19;20156;-49
2022/01/30 09:00:26;;;;;;;3.47;2.20;;;;;;;0.62;100.00;98224.69;15332673;19;20168;-50
2022/01/30 09:05:31;;;;;;;3.83;2.80;;;;;;;0.88;100.00;98220.56;15324427;19;20169;-49
2022/01/30 09:15:30;;;;;;;9.20;4.33;;;;;;;1.69;100.00;98203.34;15147840;19;2890436;-50
2022/01/30 09:20:34;;;;;;;6.43;3.90;;;;;;;2.07;100.00;98218.50;15292254;19;21083;-49
2022/01/30 09:25:40;;;;;;;16.83;5.43;;;;;;;2.25;100.00;98209.47;15310559;19;20572;-49
2022/01/30 09:30:44;;;;;;;14.97;5.63;;;;;;;2.42;100.00;98198.66;15312608;19;20145;-50
2022/01/30 09:35:49;;;;;;;10.97;4.83;;;;;;;2.56;100.00;98213.56;15312520;19;20157;-48
2022/01/30 09:40:56;;;;;;;10.80;4.20;;;;;;;2.64;100.00;98219.19;15289409;19;20161;-50
2022/01/30 09:46:01;;;;;;;11.50;4.10;;;;;;;2.60;100.00;98227.38;15303282;19;20170;-49
2022/01/30 09:51:07;;;;;;;11.10;4.53;;;;;;;2.70;100.00;98196.88;15306095;19;20162;-49
2022/01/30 09:56:12;;;;;;;11.87;4.40;;;;;;;2.72;100.00;98197.63;15305360;19;20155;-48
2022/01/30 10:01:16;;;;;;;15.00;4.20;;;;;;;2.81;100.00;98189.09;15288830;19;20166;-50
2022/01/30 10:06:23;;;;;;;14.20;4.60;;;;;;;3.00;100.00;98184.31;15280997;19;20560;-49
2022/01/30 10:11:48;;;;;;;24.77;5.23;;;;;;;3.01;100.00;98193.91;15303429;19;20182;-49
2022/01/30 10:16:53;;;;;;;19.33;4.83;;;;;;;3.07;100.00;98189.97;15301449;19;20139;-50
2022/01/30 10:22:09;;;;;;;19.23;4.83;;;;;;;2.99;100.00;98187.03;15298459;19;20726;-48
2022/01/30 10:27:29;;;;;;;23.93;4.53;;;;;;;2.93;100.00;98179.53;15217775;19;20590;-50
2022/01/30 10:32:34;;;;;;;15.20;4.57;;;;;;;2.88;100.00;98183.34;15243322;19;20167;-49
2022/01/30 10:37:43;;;;;;;17.23;5.27;;;;;;;2.80;100.00;98203.22;15276676;19;20153;-49
2022/01/30 10:42:50;;;;;;;17.40;4.67;;;;;;;2.75;100.00;98202.69;15280424;19;20162;-50
2022/01/30 10:48:11;;;;;;;19.23;5.77;;;;;;;2.76;100.00;98143.81;15247514;19;20175;-49
2022/01/30 10:53:21;;;;;;;14.33;4.57;;;;;;;2.79;100.00;98188.34;15262459;19;20150;-49
2022/01/30 10:58:25;;;;;;;14.97;4.50;;;;;;;2.84;100.00;98178.38;15278864;19;20164;-49
2022/01/30 11:03:41;;;;;;;19.77;6.33;;;;;;;2.95;100.00;98153.94;15270784;19;20148;-48
2022/01/30 11:08:48;;;;;;;19.67;5.70;;;;;;;2.91;100.00;98179.63;15256622;19;20857;-49
2022/01/30 11:19:20;;;;;;;18.43;4.77;;;;;;;2.86;100.00;98215.97;15278138;19;21521;-49
2022/01/30 11:24:26;;;;;;;17.73;5.47;;;;;;;2.96;100.00;98235.50;15279136;19;20143;-49
2022/01/30 11:29:31;;;;;;;17.90;5.37;;;;;;;3.11;100.00;98226.56;15263978;19;20580;-49
2022/01/30 11:34:40;;;;;;;15.07;4.47;;;;;;;3.32;100.00;98247.97;15240736;19;20239;-49
2022/01/30 11:39:52;;;;;;;14.57;5.30;;;;;;;3.24;100.00;98261.69;15268528;19;20149;-49
2022/01/30 11:45:03;;;;;;;13.03;5.60;;;;;;;3.11;100.00;98247.66;15274812;19;20145;-49
2022/01/30 11:50:29;;;;;;;9.30;4.60;;;;;;;3.02;100.00;98271.13;15274748;19;20468;-49
2022/01/30 11:55:56;;;;;;;13.80;5.43;;;;;;;3.06;100.00;98249.72;15238818;19;20906;-50
2022/01/30 12:01:03;;;;;;;12.83;5.80;;;;;;;3.18;100.00;98304.25;15257480;19;20168;-49
2022/01/30 12:06:23;;;;;;;11.10;5.73;;;;;;;3.13;100.00;98269.47;15263517;19;20190;-49
2022/01/30 12:11:36;;;;;;;11.63;5.67;;;;;;;3.16;100.00;98290.31;15262179;19;20198;-49
2022/01/30 12:16:44;;;;;;;9.20;4.83;;;;;;;3.06;100.00;98294.53;15239596;19;20176;-49
2022/01/30 12:21:49;;;;;;;9.47;4.20;;;;;;;3.09;100.00;98310.13;15257489;19;20194;-51
2022/01/30 12:26:58;;;;;;;8.27;4.20;;;;;;;2.96;100.00;98492.81;15273843;19;20168;-50
2022/01/30 12:32:25;;;;;;;13.83;6.60;;;;;;;3.55;100.00;98547.00;15274323;19;20155;-50
2022/01/30 12:37:31;;;;;;;10.03;5.97;;;;;;;4.82;100.00;98852.03;15259316;19;20177;-50
2022/01/30 12:42:36;;;;;;;10.53;5.70;;;;;;;4.64;100.00;98674.41;15244069;19;20797;-48
2022/01/30 12:47:52;;;;;;;11.43;7.43;;;;;;;4.51;100.00;98499.22;15270179;19;20449;-50
2022/01/30 12:52:57;;;;;;;13.03;7.33;;;;;;;5.05;100.00;98578.28;15270490;19;20158;-50
2022/01/30 12:58:02;;;;;;;12.60;7.33;;;;;;;5.24;100.00;98589.25;15262296;19;20784;-49
2022/01/30 13:03:07;;;;;;;9.03;6.43;;;;;;;6.27;100.00;98882.00;15236472;19;20135;-51
2022/01/30 13:08:12;;;;;;;6.90;5.00;;;;;;;11.02;100.00;98365.28;15261427;19;20646;-50
2022/01/30 13:13:17;;;;;;;1414.60;236.87;;;;;;;14.96;100.00;98405.88;15269013;19;20651;-50
2022/01/30 13:18:21;;;;;;;1129.23;74.20;;;;;;;14.09;100.00;98418.22;15271354;19;20151;-49
2022/01/30 13:23:27;;;;;;;7.60;4.70;;;;;;;6.63;100.00;98423.59;15247392;19;20234;-50
2022/01/30 13:28:32;;;;;;;6.13;4.03;;;;;;;3.90;100.00;98403.09;15251272;19;20215;-50
2022/01/30 13:33:37;;;;;;;5.37;3.23;;;;;;;3.50;100.00;98443.63;15266299;19;20155;-49
2022/01/30 13:38:45;;;;;;;3.80;2.40;;;;;;;3.28;100.00;98451.22;15269108;19;20163;-50
2022/01/30 13:44:00;;;;;;;3.07;2.20;;;;;;;3.20;100.00;98460.47;15258384;19;20154;-49
2022/01/30 13:49:08;;;;;;;2.77;2.27;;;;;;;3.12;100.00;98462.78;15226843;19;20171;-50
2022/01/30 13:54:13;;;;;;;4.17;2.40;;;;;;;3.11;100.00;98482.16;15259406;19;20162;-50
2022/01/30 13:59:30;;;;;;;4.97;2.40;;;;;;;3.07;100.00;98511.41;15271012;19;20155;-50
2022/01/30 14:04:37;;;;;;;2.03;1.80;;;;;;;3.03;100.00;98542.38;15281966;19;20150;-50
2022/01/30 14:09:47;;;;;;;3.87;2.77;;;;;;;3.07;100.00;98532.50;15255899;19;20150;-49
2022/01/30 14:15:07;;;;;;;2.73;2.27;;;;;;;3.07;100.00;98538.59;15267677;19;20166;-50
2022/01/30 14:20:13;;;;;;;3.77;2.87;;;;;;;3.14;100.00;98550.44;15281889;19;20154;-48
2022/01/30 14:25:21;;;;;;;5.00;3.13;;;;;;;2.99;100.00;98571.66;15279006;19;20212;-48
2022/01/30 14:30:40;;;;;;;4.97;2.90;;;;;;;2.94;100.00;98560.53;15262345;19;20245;-48
2022/01/30 14:35:46;;;;;;;6.03;3.10;;;;;;;2.95;100.00;98602.59;15257539;19;20154;-49
2022/01/30 14:40:55;;;;;;;6.60;3.07;;;;;;;2.81;100.00;98600.78;15281767;19;20619;-49
2022/01/30 14:46:00;;;;;;;7.17;3.20;;;;;;;2.89;100.00;98595.06;15281543;19;20143;-49
2022/01/30 14:51:06;;;;;;;6.23;2.33;;;;;;;2.89;100.00;98629.31;15275449;19;20207;-49
2022/01/30 14:56:11;;;;;;;4.67;2.53;;;;;;;2.69;100.00;98646.28;15242182;19;20159;-49
2022/01/30 15:01:15;;;;;;;4.73;2.40;;;;;;;2.74;100.00;98661.84;15267759;19;20169;-49
2022/01/30 15:06:21;;;;;;;5.07;2.57;;;;;;;2.76;100.00;98644.16;15273861;19;20159;-49
2022/01/30 15:11:25;;;;;;;4.23;1.90;;;;;;;2.80;100.00;98693.06;15273743;19;20186;-48
2022/01/30 15:16:41;;;;;;;3.63;1.50;;;;;;;2.72;100.00;98675.09;15246614;19;20151;-50
2022/01/30 15:21:47;;;;;;;2.07;1.60;;;;;;;2.70;100.00;98699.81;15259925;19;20139;-49
2022/01/30 15:26:52;;;;;;;4.53;2.20;;;;;;;2.66;100.00;98690.38;15272239;19;20523;-49
2022/01/30 15:36:55;;;;;;;3.97;2.57;;;;;;;2.70;100.00;98715.59;15325946;19;20465;-48
2022/01/30 15:42:00;;;;;;;4.77;1.87;;;;;;;3.29;100.00;98750.75;15318125;19;20534;-48
2022/01/30 15:52:37;;;;;;;7.37;1.67;;;;;;;2.70;100.00;98776.19;15334713;19;20154;-47
2022/01/30 15:57:42;;;;;;;4.60;2.33;;;;;;;2.47;100.00;98809.91;15341404;19;20146;-48
2022/01/30 16:02:47;;;;;;;3.83;1.87;;;;;;;2.18;100.00;98705.41;15312659;19;20240;-49
2022/01/30 16:07:52;;;;;;;4.40;2.13;;;;;;;2.77;100.00;98714.34;15327963;19;20179;-49
2022/01/30 16:18:22;;;;;;;6.43;2.83;;;;;;;2.97;100.00;98760.56;15334577;19;20149;-49
2022/01/30 16:23:28;;;;;;;3.50;2.10;;;;;;;3.10;100.00;98754.50;15309939;19;20741;-49
2022/01/30 16:28:33;;;;;;;6.13;2.27;;;;;;;3.34;100.00;98767.16;15318615;19;20145;-50
2022/01/30 16:33:38;;;;;;;4.20;2.40;;;;;;;3.41;100.00;98794.84;15331160;19;20273;-49
2022/01/30 16:38:42;;;;;;;7.70;2.73;;;;;;;2.65;100.00;98867.78;15329243;19;20213;-49
2022/01/30 16:43:50;;;;;;;3.90;1.87;;;;;;;2.64;100.00;98802.88;15318006;19;20149;-48
2022/01/30 16:49:03;;;;;;;4.00;1.30;;;;;;;3.44;100.00;98834.22;15250826;19;20150;-49
2022/01/30 16:54:08;;;;;;;6.03;1.63;;;;;;;4.42;100.00;98853.72;15274618;19;20157;-49
2022/01/30 16:59:12;;;;;;;3.10;1.90;;;;;;;4.67;100.00;98859.16;15278855;19;20219;-49
2022/01/30 17:04:17;;;;;;;2.70;1.60;;;;;;;5.25;100.00;98862.44;15283250;19;20142;-48
2022/01/30 17:09:35;;;;;;;4.40;1.87;;;;;;;5.22;100.00;98860.84;15251898;19;20201;-50
2022/01/30 17:14:40;;;;;;;4.60;2.20;;;;;;;4.75;100.00;98855.16;15264591;19;20787;-49
2022/01/30 17:19:44;;;;;;;2.77;2.17;;;;;;;4.45;100.00;98874.66;15275189;19;20160;-49
2022/01/30 17:24:49;;;;;;;4.00;2.70;;;;;;;4.39;100.00;98885.59;15275883;19;20587;-48
2022/01/30 17:29:54;;;;;;;5.70;2.40;;;;;;;4.48;100.00;98887.66;15262398;19;20162;-49
2022/01/30 17:34:59;;;;;;;4.37;2.30;;;;;;;4.75;100.00;98897.44;15251382;19;20189;-48
2022/01/30 17:40:04;;;;;;;6.23;2.60;;;;;;;4.30;100.00;98891.44;15277953;19;20167;-48
2022/01/30 17:45:11;;;;;;;3.57;1.47;;;;;;;4.04;100.00;98910.66;15276878;19;20141;-49
2022/01/30 17:50:18;;;;;;;5.20;2.33;;;;;;;4.89;100.00;98900.06;15272851;19;20161;-49
2022/01/30 17:55:22;;;;;;;5.93;2.97;;;;;;;4.59;100.00;98898.38;15240826;19;20193;-49
2022/01/30 18:00:29;;;;;;;2.90;2.33;;;;;;;4.64;100.00;98896.31;15264220;19;21057;-48
2022/01/30 18:05:34;;;;;;;5.23;1.83;;;;;;;5.50;100.00;98906.66;15277907;19;20153;-49
2022/01/30 18:10:38;;;;;;;3.47;2.00;;;;;;;6.34;100.00;98907.09;15274203;19;20157;-48
2022/01/30 18:15:43;;;;;;;8.60;2.30;;;;;;;5.66;100.00;98965.56;15248621;19;20149;-48
2022/01/30 18:20:47;;;;;;;6.63;1.87;;;;;;;5.16;100.00;98961.75;15248565;19;20157;-48
2022/01/30 18:25:52;;;;;;;8.30;2.17;;;;;;;5.12;100.00;99013.09;15267209;19;20149;-48
2022/01/30 18:30:57;;;;;;;2.90;2.00;;;;;;;3.78;100.00;98986.91;15269532;19;20149;-52
2022/01/30 18:41:05;;;;;;;13.27;6.10;;;;;;;5.60;100.00;98973.88;15160008;19;2940106;-50
2022/01/30 18:46:12;;;;;;;5.43;3.53;;;;;;;4.02;100.00;98965.31;15335193;19;20148;-51
2022/01/30 18:51:17;;;;;;;5.67;3.90;;;;;;;13.58;100.00;98961.50;15339899;19;20920;-50
2022/01/30 19:01:16;;;;;;;6.77;3.10;;;;;;;2.13;100.00;98989.84;15157258;19;2926779;-51
2022/01/30 19:06:22;;;;;;;4.30;3.37;;;;;;;2.01;100.00;98977.31;15327177;19;20149;-50
2022/01/30 19:11:28;;;;;;;5.80;4.00;;;;;;;1.93;100.00;98968.97;15343680;19;20511;-49
2022/01/30 19:21:30;;;;;;;7.70;3.97;;;;;;;2.04;100.00;98994.72;15321493;19;20477;-49
2022/01/30 19:26:35;;;;;;;3.53;2.63;;;;;;;2.07;100.00;98971.72;15319080;19;20159;-51
2022/01/30 19:36:36;;;;;;;2.47;1.47;;;;;;;2.23;100.00;98966.53;15336591;19;20486;-49
2022/01/30 19:41:44;;;;;;;5.70;1.37;;;;;;;2.34;100.00;98979.97;15341933;19;20149;-50
2022/01/30 19:46:54;;;;;;;2.93;1.40;;;;;;;2.42;100.00;98958.50;15313874;19;20178;-49
2022/01/30 19:52:00;;;;;;;2.20;0.87;;;;;;;2.46;100.00;98978.47;15332230;19;20168;-49
2022/01/30 19:57:05;;;;;;;3.27;1.40;;;;;;;2.48;100.00;98997.69;15338748;19;20163;-49
2022/01/30 20:07:04;;;;;;;1.80;1.47;;;;;;;2.49;100.00;98983.59;15133916;19;2978747;-49
2022/01/30 20:12:10;;;;;;;4.10;1.43;;;;;;;2.73;100.00;99034.09;15292008;19;20153;-49
2022/01/30 20:17:16;;;;;;;2.40;1.10;;;;;;;2.93;100.00;99068.13;15307161;19;20144;-49
2022/01/30 20:22:22;;;;;;;6.33;1.47;;;;;;;2.36;100.00;99088.66;15306623;19;20259;-49
2022/01/30 20:27:27;;;;;;;4.63;1.70;;;;;;;2.07;100.00;99128.72;15307484;19;21175;-48
2022/01/30 20:32:32;;;;;;;3.63;1.93;;;;;;;2.12;100.00;99127.59;15282589;19;20159;-50
2022/01/30 20:37:37;;;;;;;4.33;2.40;;;;;;;2.18;100.00;99150.09;15303050;19;20165;-48
2022/01/30 20:42:42;;;;;;;6.90;3.37;;;;;;;2.03;100.00;99138.56;15304052;19;20191;-50
2022/01/30 20:47:47;;;;;;;4.60;2.27;;;;;;;2.12;100.00;99156.53;15308346;19;20218;-48
2022/01/30 20:52:52;;;;;;;5.83;4.17;;;;;;;2.09;100.00;99153.19;15283235;19;20149;-48
2022/01/30 20:57:57;;;;;;;4.57;2.60;;;;;;;2.02;100.00;99149.16;15294805;19;20194;-49
2022/01/30 21:03:02;;;;;;;2.93;2.10;;;;;;;1.97;100.00;99195.88;15299438;19;20571;-48
2022/01/30 21:08:07;;;;;;;5.60;3.07;;;;;;;2.04;100.00;99168.38;15309954;19;20593;-49
2022/01/30 21:13:16;;;;;;;5.00;2.10;;;;;;;1.87;100.00;99174.41;15296454;19;20593;-49
2022/01/30 21:23:17;;;;;;;4.60;2.10;;;;;;;1.91;100.00;99164.59;15300725;19;20471;-48
2022/01/30 21:28:22;;;;;;;5.43;2.50;;;;;;;1.94;100.00;99175.81;15312993;19;20140;-49
2022/01/30 21:33:27;;;;;;;4.73;2.40;;;;;;;2.06;100.00;99153.31;15310669;19;20260;-50
2022/01/30 21:38:31;;;;;;;6.33;2.80;;;;;;;2.12;100.00;99153.03;15285900;19;20136;-49
2022/01/30 21:43:36;;;;;;;6.37;2.80;;;;;;;2.15;100.00;99153.75;15298301;19;20661;-49
2022/01/30 21:48:41;;;;;;;8.97;2.80;;;;;;;2.09;100.00;99138.25;15312139;19;20801;-49
2022/01/30 21:53:45;;;;;;;6.03;3.20;;;;;;;2.12;100.00;99118.84;15307193;19;20147;-50
2022/01/30 21:58:50;;;;;;;5.67;2.83;;;;;;;2.15;100.00;99137.13;15299761;19;20269;-50
2022/01/30 22:03:56;;;;;;;4.77;2.90;;;;;;;2.14;100.00;99130.16;15282252;19;20152;-49
2022/01/30 22:14:04;;;;;;;6.93;2.30;;;;;;;2.12;100.00;99174.94;15303606;19;20989;-49
2022/01/30 22:19:11;;;;;;;6.33;2.23;;;;;;;2.02;100.00;99183.38;15313392;19;20160;-49
2022/01/30 22:24:16;;;;;;;4.50;1.40;;;;;;;1.85;100.00;99204.34;15283014;19;20177;-49
2022/01/30 22:29:20;;;;;;;6.03;1.80;;;;;;;1.96;100.00;99191.53;15303574;19;20192;-49
2022/01/30 22:49:20;;;;;;;3.70;1.70;;;;;;;2.09;100.00;99196.13;15287069;19;21175;-48
2022/01/30 22:54:25;;;;;;;6.83;2.30;;;;;;;2.24;100.00;99205.09;15308981;19;20148;-48
2022/01/30 22:59:29;;;;;;;4.30;2.07;;;;;;;2.12;100.00;99205.66;15313566;19;20148;-49
2022/01/30 23:04:35;;;;;;;4.33;1.80;;;;;;;2.06;100.00;99196.28;15307638;19;20140;-49
2022/01/30 23:09:39;;;;;;;5.13;1.63;;;;;;;2.02;100.00;99214.94;15286361;19;20177;-49
2022/01/30 23:14:49;;;;;;;4.53;1.60;;;;;;;2.08;100.00;99209.38;15298435;19;20148;-49
2022/01/30 23:19:54;;;;;;;5.57;1.43;;;;;;;2.05;100.00;99226.13;15308889;19;20172;-48
2022/01/30 23:24:59;;;;;;;3.80;1.23;;;;;;;2.06;100.00;99242.78;15309301;19;20175;-47
2022/01/30 23:30:03;;;;;;;2.80;1.50;;;;;;;2.10;100.00;99229.41;15288172;19;20149;-48
2022/01/30 23:35:08;;;;;;;3.43;0.93;;;;;;;2.20;100.00;99228.97;15293334;19;20148;-49
2022/01/30 23:40:14;;;;;;;5.93;1.03;;;;;;;2.26;100.00;99250.63;15306230;19;20151;-49
2022/01/30 23:45:21;;;;;;;5.57;0.93;;;;;;;2.25;100.00;99243.63;15315664;19;20186;-48
2022/01/30 23:50:26;;;;;;;4.10;0.97;;;;;;;2.21;100.00;99252.59;15337071;19;20220;-48
2022/01/30 23:55:31;;;;;;;2.50;0.90;;;;;;;1.59;100.00;99280.00;15313590;19;20515;-48
